sensor_id;sensor_type;location;lat;lon;timestamp;P1;durP1;ratioP1;P2;durP2;ratioP2
15271;SDS011;7737;51.578;7.268;2024-03-07T00:00:44;48.13;;;30.47;;
15271;SDS011;7737;51.578;7.268;2024-03-07T00:03:10;42.80;;;30.48;;
15271;SDS011;7737;51.578;7.268;2024-03-07T00:05:37;46.87;;;31.07;;
15271;SDS011;7737;51.578;7.268;2024-03-07T00:08:04;44.40;;;30.13;;
15271;SDS011;7737;51.578;7.268;2024-03-07T00:10:31;45.30;;;31.13;;
15271;SDS011;7737;51.578;7.268;2024-03-07T00:13:01;47.30;;;31.73;;
15271;SDS011;7737;51.578;7.268;2024-03-07T00:15:28;51.83;;;32.17;;
15271;SDS011;7737;51.578;7.268;2024-03-07T00:17:56;48.03;;;31.93;;
15271;SDS011;7737;51.578;7.268;2024-03-07T00:20:23;43.07;;;29.93;;
15271;SDS011;7737;51.578;7.268;2024-03-07T00:22:49;30.33;;;23.73;;
15271;SDS011;7737;51.578;7.268;2024-03-07T00:25:16;21.00;;;17.53;;
15271;SDS011;7737;51.578;7.268;2024-03-07T00:27:44;32.00;;;23.33;;
15271;SDS011;7737;51.578;7.268;2024-03-07T00:30:11;33.77;;;23.97;;
15271;SDS011;7737;51.578;7.268;2024-03-07T00:32:39;38.63;;;26.92;;
15271;SDS011;7737;51.578;7.268;2024-03-07T00:35:07;37.03;;;26.80;;
15271;SDS011;7737;51.578;7.268;2024-03-07T00:37:34;43.93;;;28.40;;
15271;SDS011;7737;51.578;7.268;2024-03-07T00:40:01;49.43;;;25.53;;
15271;SDS011;7737;51.578;7.268;2024-03-07T00:42:28;106.33;;;26.27;;
15271;SDS011;7737;51.578;7.268;2024-03-07T00:44:54;75.23;;;22.03;;
15271;SDS011;7737;51.578;7.268;2024-03-07T00:47:21;40.17;;;21.87;;
15271;SDS011;7737;51.578;7.268;2024-03-07T00:49:48;59.50;;;20.17;;
15271;SDS011;7737;51.578;7.268;2024-03-07T00:52:16;34.07;;;21.90;;
15271;SDS011;7737;51.578;7.268;2024-03-07T00:54:42;79.73;;;22.63;;
15271;SDS011;7737;51.578;7.268;2024-03-07T00:57:09;42.57;;;21.80;;
15271;SDS011;7737;51.578;7.268;2024-03-07T00:59:35;55.53;;;22.00;;
15271;SDS011;7737;51.578;7.268;2024-03-07T01:02:02;41.70;;;21.90;;
15271;SDS011;7737;51.578;7.268;2024-03-07T01:04:29;24.70;;;20.90;;
15271;SDS011;7737;51.578;7.268;2024-03-07T01:06:58;23.63;;;21.07;;
15271;SDS011;7737;51.578;7.268;2024-03-07T01:09:26;22.67;;;20.20;;
15271;SDS011;7737;51.578;7.268;2024-03-07T01:11:54;23.47;;;19.77;;
15271;SDS011;7737;51.578;7.268;2024-03-07T01:14:21;28.13;;;22.90;;
15271;SDS011;7737;51.578;7.268;2024-03-07T01:16:47;25.07;;;22.23;;
15271;SDS011;7737;51.578;7.268;2024-03-07T01:19:14;27.02;;;21.55;;
15271;SDS011;7737;51.578;7.268;2024-03-07T01:21:40;19.77;;;17.77;;
15271;SDS011;7737;51.578;7.268;2024-03-07T01:24:07;18.37;;;16.43;;
15271;SDS011;7737;51.578;7.268;2024-03-07T01:26:35;28.77;;;17.97;;
15271;SDS011;7737;51.578;7.268;2024-03-07T01:29:02;154.93;;;23.20;;
15271;SDS011;7737;51.578;7.268;2024-03-07T01:31:29;29.80;;;21.47;;
15271;SDS011;7737;51.578;7.268;2024-03-07T01:33:56;23.92;;;20.92;;
15271;SDS011;7737;51.578;7.268;2024-03-07T01:36:22;21.83;;;19.53;;
15271;SDS011;7737;51.578;7.268;2024-03-07T01:38:49;21.37;;;19.17;;
15271;SDS011;7737;51.578;7.268;2024-03-07T01:41:16;20.93;;;18.83;;
15271;SDS011;7737;51.578;7.268;2024-03-07T01:43:44;21.10;;;18.90;;
15271;SDS011;7737;51.578;7.268;2024-03-07T01:46:11;22.47;;;20.17;;
15271;SDS011;7737;51.578;7.268;2024-03-07T01:48:39;21.43;;;19.23;;
15271;SDS011;7737;51.578;7.268;2024-03-07T01:51:06;21.03;;;18.83;;
15271;SDS011;7737;51.578;7.268;2024-03-07T01:53:33;19.40;;;17.40;;
15271;SDS011;7737;51.578;7.268;2024-03-07T01:56:00;20.07;;;17.83;;
15271;SDS011;7737;51.578;7.268;2024-03-07T01:58:29;18.73;;;16.73;;
15271;SDS011;7737;51.578;7.268;2024-03-07T02:00:58;18.30;;;16.53;;
15271;SDS011;7737;51.578;7.268;2024-03-07T02:03:24;18.97;;;16.17;;
15271;SDS011;7737;51.578;7.268;2024-03-07T02:05:51;18.15;;;16.25;;
15271;SDS011;7737;51.578;7.268;2024-03-07T02:08:18;18.45;;;16.63;;
15271;SDS011;7737;51.578;7.268;2024-03-07T02:10:44;22.93;;;17.43;;
15271;SDS011;7737;51.578;7.268;2024-03-07T02:13:11;19.50;;;17.57;;
15271;SDS011;7737;51.578;7.268;2024-03-07T02:15:37;18.90;;;17.00;;
15271;SDS011;7737;51.578;7.268;2024-03-07T02:18:05;18.00;;;16.20;;
15271;SDS011;7737;51.578;7.268;2024-03-07T02:20:34;18.80;;;17.00;;
15271;SDS011;7737;51.578;7.268;2024-03-07T02:23:02;18.83;;;17.03;;
15271;SDS011;7737;51.578;7.268;2024-03-07T02:25:29;20.00;;;18.00;;
15271;SDS011;7737;51.578;7.268;2024-03-07T02:27:57;54.40;;;19.03;;
15271;SDS011;7737;51.578;7.268;2024-03-07T02:30:23;17.70;;;15.90;;
15271;SDS011;7737;51.578;7.268;2024-03-07T02:32:50;18.60;;;16.65;;
15271;SDS011;7737;51.578;7.268;2024-03-07T02:35:19;19.10;;;16.33;;
15271;SDS011;7737;51.578;7.268;2024-03-07T02:37:46;18.33;;;16.50;;
15271;SDS011;7737;51.578;7.268;2024-03-07T02:40:15;19.27;;;16.73;;
15271;SDS011;7737;51.578;7.268;2024-03-07T02:42:42;19.20;;;17.30;;
15271;SDS011;7737;51.578;7.268;2024-03-07T02:45:08;18.70;;;16.90;;
15271;SDS011;7737;51.578;7.268;2024-03-07T02:47:39;18.53;;;16.73;;
15271;SDS011;7737;51.578;7.268;2024-03-07T02:50:07;17.67;;;15.93;;
15271;SDS011;7737;51.578;7.268;2024-03-07T02:52:34;17.13;;;15.53;;
15271;SDS011;7737;51.578;7.268;2024-03-07T02:55:01;18.67;;;16.70;;
15271;SDS011;7737;51.578;7.268;2024-03-07T02:57:31;17.23;;;15.53;;
15271;SDS011;7737;51.578;7.268;2024-03-07T02:59:58;20.00;;;17.23;;
15271;SDS011;7737;51.578;7.268;2024-03-07T03:02:25;21.60;;;18.30;;
15271;SDS011;7737;51.578;7.268;2024-03-07T03:04:51;19.60;;;17.30;;
15271;SDS011;7737;51.578;7.268;2024-03-07T03:07:19;19.77;;;17.47;;
15271;SDS011;7737;51.578;7.268;2024-03-07T03:09:46;21.60;;;17.70;;
15271;SDS011;7737;51.578;7.268;2024-03-07T03:12:12;19.80;;;17.60;;
15271;SDS011;7737;51.578;7.268;2024-03-07T03:14:40;17.47;;;15.73;;
15271;SDS011;7737;51.578;7.268;2024-03-07T03:17:08;18.17;;;16.37;;
15271;SDS011;7737;51.578;7.268;2024-03-07T03:19:36;18.77;;;16.77;;
15271;SDS011;7737;51.578;7.268;2024-03-07T03:22:02;16.63;;;15.03;;
15271;SDS011;7737;51.578;7.268;2024-03-07T03:24:29;17.60;;;15.80;;
15271;SDS011;7737;51.578;7.268;2024-03-07T03:26:55;16.57;;;14.97;;
15271;SDS011;7737;51.578;7.268;2024-03-07T03:29:22;17.87;;;16.07;;
15271;SDS011;7737;51.578;7.268;2024-03-07T03:31:50;19.33;;;16.97;;
15271;SDS011;7737;51.578;7.268;2024-03-07T03:34:17;18.17;;;16.33;;
15271;SDS011;7737;51.578;7.268;2024-03-07T03:36:43;17.13;;;15.33;;
15271;SDS011;7737;51.578;7.268;2024-03-07T03:39:10;16.70;;;15.00;;
15271;SDS011;7737;51.578;7.268;2024-03-07T03:41:38;17.03;;;15.30;;
15271;SDS011;7737;51.578;7.268;2024-03-07T03:44:05;16.60;;;14.90;;
15271;SDS011;7737;51.578;7.268;2024-03-07T03:46:31;16.47;;;14.87;;
15271;SDS011;7737;51.578;7.268;2024-03-07T03:48:59;16.57;;;14.50;;
15271;SDS011;7737;51.578;7.268;2024-03-07T03:51:26;26.47;;;15.33;;
15271;SDS011;7737;51.578;7.268;2024-03-07T03:53:53;19.13;;;15.90;;
15271;SDS011;7737;51.578;7.268;2024-03-07T03:56:19;16.90;;;15.20;;
15271;SDS011;7737;51.578;7.268;2024-03-07T03:58:46;16.47;;;14.87;;
15271;SDS011;7737;51.578;7.268;2024-03-07T04:01:12;16.17;;;14.57;;
15271;SDS011;7737;51.578;7.268;2024-03-07T04:03:39;20.37;;;17.13;;
15271;SDS011;7737;51.578;7.268;2024-03-07T04:06:07;17.23;;;15.53;;
15271;SDS011;7737;51.578;7.268;2024-03-07T04:08:34;19.33;;;17.30;;
15271;SDS011;7737;51.578;7.268;2024-03-07T04:11:01;46.70;;;25.70;;
15271;SDS011;7737;51.578;7.268;2024-03-07T04:13:28;32.93;;;22.27;;
15271;SDS011;7737;51.578;7.268;2024-03-07T04:15:55;28.13;;;21.03;;
15271;SDS011;7737;51.578;7.268;2024-03-07T04:18:22;30.97;;;21.27;;
15271;SDS011;7737;51.578;7.268;2024-03-07T04:20:49;30.80;;;21.73;;
15271;SDS011;7737;51.578;7.268;2024-03-07T04:23:17;33.60;;;22.50;;
15271;SDS011;7737;51.578;7.268;2024-03-07T04:25:45;31.27;;;23.20;;
15271;SDS011;7737;51.578;7.268;2024-03-07T04:28:12;32.67;;;23.70;;
15271;SDS011;7737;51.578;7.268;2024-03-07T04:30:38;37.22;;;27.33;;
15271;SDS011;7737;51.578;7.268;2024-03-07T04:33:05;38.27;;;27.40;;
15271;SDS011;7737;51.578;7.268;2024-03-07T04:35:31;36.63;;;26.80;;
15271;SDS011;7737;51.578;7.268;2024-03-07T04:37:58;42.13;;;28.90;;
15271;SDS011;7737;51.578;7.268;2024-03-07T04:40:26;47.30;;;30.30;;
15271;SDS011;7737;51.578;7.268;2024-03-07T04:42:53;46.53;;;29.17;;
15271;SDS011;7737;51.578;7.268;2024-03-07T04:45:19;48.50;;;31.43;;
15271;SDS011;7737;51.578;7.268;2024-03-07T04:47:46;43.50;;;28.60;;
15271;SDS011;7737;51.578;7.268;2024-03-07T04:50:14;52.50;;;30.67;;
15271;SDS011;7737;51.578;7.268;2024-03-07T04:52:42;51.60;;;31.67;;
15271;SDS011;7737;51.578;7.268;2024-03-07T04:55:11;62.10;;;34.57;;
15271;SDS011;7737;51.578;7.268;2024-03-07T04:57:39;52.73;;;32.53;;
15271;SDS011;7737;51.578;7.268;2024-03-07T05:00:07;55.17;;;32.97;;
15271;SDS011;7737;51.578;7.268;2024-03-07T05:02:38;54.13;;;31.87;;
15271;SDS011;7737;51.578;7.268;2024-03-07T05:05:05;46.90;;;30.67;;
15271;SDS011;7737;51.578;7.268;2024-03-07T05:07:32;47.93;;;29.30;;
15271;SDS011;7737;51.578;7.268;2024-03-07T05:10:00;51.30;;;32.17;;
15271;SDS011;7737;51.578;7.268;2024-03-07T05:12:28;50.87;;;31.00;;
15271;SDS011;7737;51.578;7.268;2024-03-07T05:14:56;44.77;;;27.70;;
15271;SDS011;7737;51.578;7.268;2024-03-07T05:17:22;40.40;;;26.13;;
15271;SDS011;7737;51.578;7.268;2024-03-07T05:19:49;43.77;;;27.67;;
15271;SDS011;7737;51.578;7.268;2024-03-07T05:22:15;40.73;;;27.23;;
15271;SDS011;7737;51.578;7.268;2024-03-07T05:24:43;43.37;;;28.07;;
15271;SDS011;7737;51.578;7.268;2024-03-07T05:27:09;53.03;;;29.33;;
15271;SDS011;7737;51.578;7.268;2024-03-07T05:29:37;46.40;;;29.20;;
15271;SDS011;7737;51.578;7.268;2024-03-07T05:34:48;40.50;;;28.17;;
15271;SDS011;7737;51.578;7.268;2024-03-07T05:37:15;41.23;;;27.67;;
15271;SDS011;7737;51.578;7.268;2024-03-07T05:39:42;45.57;;;30.23;;
15271;SDS011;7737;51.578;7.268;2024-03-07T05:42:10;49.80;;;31.88;;
15271;SDS011;7737;51.578;7.268;2024-03-07T05:44:39;49.93;;;31.00;;
15271;SDS011;7737;51.578;7.268;2024-03-07T05:47:06;54.00;;;32.50;;
15271;SDS011;7737;51.578;7.268;2024-03-07T05:49:35;43.23;;;28.07;;
15271;SDS011;7737;51.578;7.268;2024-03-07T05:52:03;44.87;;;28.17;;
15271;SDS011;7737;51.578;7.268;2024-03-07T05:54:30;46.27;;;28.90;;
15271;SDS011;7737;51.578;7.268;2024-03-07T05:56:57;51.57;;;32.13;;
15271;SDS011;7737;51.578;7.268;2024-03-07T05:59:24;53.53;;;32.23;;
15271;SDS011;7737;51.578;7.268;2024-03-07T06:01:51;50.57;;;30.63;;
15271;SDS011;7737;51.578;7.268;2024-03-07T06:04:19;58.17;;;33.77;;
15271;SDS011;7737;51.578;7.268;2024-03-07T06:06:47;64.23;;;35.30;;
15271;SDS011;7737;51.578;7.268;2024-03-07T06:09:13;53.13;;;32.53;;
15271;SDS011;7737;51.578;7.268;2024-03-07T06:11:46;52.13;;;32.40;;
15271;SDS011;7737;51.578;7.268;2024-03-07T06:14:14;53.93;;;32.63;;
15271;SDS011;7737;51.578;7.268;2024-03-07T06:16:41;49.40;;;32.33;;
15271;SDS011;7737;51.578;7.268;2024-03-07T06:19:08;51.80;;;31.43;;
15271;SDS011;7737;51.578;7.268;2024-03-07T06:21:35;49.13;;;30.03;;
15271;SDS011;7737;51.578;7.268;2024-03-07T06:24:05;50.90;;;31.53;;
15271;SDS011;7737;51.578;7.268;2024-03-07T06:26:34;49.00;;;31.30;;
15271;SDS011;7737;51.578;7.268;2024-03-07T06:29:11;52.67;;;32.57;;
15271;SDS011;7737;51.578;7.268;2024-03-07T06:31:38;54.27;;;32.80;;
15271;SDS011;7737;51.578;7.268;2024-03-07T06:34:05;57.07;;;33.30;;
15271;SDS011;7737;51.578;7.268;2024-03-07T06:36:32;55.80;;;33.97;;
15271;SDS011;7737;51.578;7.268;2024-03-07T06:38:58;54.63;;;33.33;;
15271;SDS011;7737;51.578;7.268;2024-03-07T06:41:26;52.77;;;32.37;;
15271;SDS011;7737;51.578;7.268;2024-03-07T06:43:53;47.77;;;31.97;;
15271;SDS011;7737;51.578;7.268;2024-03-07T06:46:20;59.20;;;32.67;;
15271;SDS011;7737;51.578;7.268;2024-03-07T06:48:47;57.40;;;34.87;;
15271;SDS011;7737;51.578;7.268;2024-03-07T06:51:13;54.30;;;33.90;;
15271;SDS011;7737;51.578;7.268;2024-03-07T06:53:42;54.77;;;35.00;;
15271;SDS011;7737;51.578;7.268;2024-03-07T06:56:10;56.47;;;36.27;;
15271;SDS011;7737;51.578;7.268;2024-03-07T06:58:39;58.60;;;35.80;;
15271;SDS011;7737;51.578;7.268;2024-03-07T07:01:05;60.47;;;36.53;;
15271;SDS011;7737;51.578;7.268;2024-03-07T07:03:35;54.30;;;35.43;;
15271;SDS011;7737;51.578;7.268;2024-03-07T07:06:02;51.40;;;34.97;;
15271;SDS011;7737;51.578;7.268;2024-03-07T07:08:31;54.70;;;36.13;;
15271;SDS011;7737;51.578;7.268;2024-03-07T07:10:58;52.17;;;34.70;;
15271;SDS011;7737;51.578;7.268;2024-03-07T07:13:25;53.77;;;35.20;;
15271;SDS011;7737;51.578;7.268;2024-03-07T07:15:53;50.33;;;34.97;;
15271;SDS011;7737;51.578;7.268;2024-03-07T07:18:20;55.37;;;37.70;;
15271;SDS011;7737;51.578;7.268;2024-03-07T07:20:49;58.70;;;37.80;;
15271;SDS011;7737;51.578;7.268;2024-03-07T07:23:17;49.27;;;34.73;;
15271;SDS011;7737;51.578;7.268;2024-03-07T07:25:45;51.37;;;35.10;;
15271;SDS011;7737;51.578;7.268;2024-03-07T07:28:11;48.00;;;33.33;;
15271;SDS011;7737;51.578;7.268;2024-03-07T07:30:38;54.07;;;34.20;;
15271;SDS011;7737;51.578;7.268;2024-03-07T07:33:06;49.80;;;34.23;;
15271;SDS011;7737;51.578;7.268;2024-03-07T07:35:32;46.27;;;33.53;;
15271;SDS011;7737;51.578;7.268;2024-03-07T07:37:59;46.20;;;34.23;;
15271;SDS011;7737;51.578;7.268;2024-03-07T07:40:26;47.10;;;32.37;;
15271;SDS011;7737;51.578;7.268;2024-03-07T07:42:53;47.17;;;34.10;;
15271;SDS011;7737;51.578;7.268;2024-03-07T07:45:21;44.27;;;32.47;;
15271;SDS011;7737;51.578;7.268;2024-03-07T07:47:48;39.90;;;31.33;;
15271;SDS011;7737;51.578;7.268;2024-03-07T07:50:18;45.03;;;32.17;;
15271;SDS011;7737;51.578;7.268;2024-03-07T07:52:45;42.37;;;31.77;;
15271;SDS011;7737;51.578;7.268;2024-03-07T07:55:13;37.53;;;29.92;;
15271;SDS011;7737;51.578;7.268;2024-03-07T07:57:43;37.57;;;30.70;;
15271;SDS011;7737;51.578;7.268;2024-03-07T08:00:12;40.67;;;31.00;;
15271;SDS011;7737;51.578;7.268;2024-03-07T08:02:47;35.53;;;29.30;;
15271;SDS011;7737;51.578;7.268;2024-03-07T08:05:19;36.00;;;28.10;;
15271;SDS011;7737;51.578;7.268;2024-03-07T08:07:48;41.47;;;30.17;;
15271;SDS011;7737;51.578;7.268;2024-03-07T08:10:16;40.60;;;30.25;;
15271;SDS011;7737;51.578;7.268;2024-03-07T08:12:43;39.87;;;30.23;;
15271;SDS011;7737;51.578;7.268;2024-03-07T08:15:11;39.83;;;30.23;;
15271;SDS011;7737;51.578;7.268;2024-03-07T08:17:39;36.97;;;29.63;;
15271;SDS011;7737;51.578;7.268;2024-03-07T08:20:08;36.20;;;29.95;;
15271;SDS011;7737;51.578;7.268;2024-03-07T08:22:38;35.43;;;29.87;;
15271;SDS011;7737;51.578;7.268;2024-03-07T08:25:05;45.28;;;30.63;;
15271;SDS011;7737;51.578;7.268;2024-03-07T08:27:34;38.83;;;29.60;;
15271;SDS011;7737;51.578;7.268;2024-03-07T08:30:00;35.45;;;28.88;;
15271;SDS011;7737;51.578;7.268;2024-03-07T08:32:27;34.80;;;28.25;;
15271;SDS011;7737;51.578;7.268;2024-03-07T08:34:53;37.20;;;28.33;;
15271;SDS011;7737;51.578;7.268;2024-03-07T08:37:20;37.50;;;29.65;;
15271;SDS011;7737;51.578;7.268;2024-03-07T08:39:49;35.30;;;28.17;;
15271;SDS011;7737;51.578;7.268;2024-03-07T08:42:17;36.60;;;28.83;;
15271;SDS011;7737;51.578;7.268;2024-03-07T08:44:44;33.60;;;29.23;;
15271;SDS011;7737;51.578;7.268;2024-03-07T08:47:11;35.37;;;28.07;;
15271;SDS011;7737;51.578;7.268;2024-03-07T08:49:37;35.83;;;28.13;;
15271;SDS011;7737;51.578;7.268;2024-03-07T08:52:04;34.95;;;28.83;;
15271;SDS011;7737;51.578;7.268;2024-03-07T08:54:31;36.65;;;28.23;;
15271;SDS011;7737;51.578;7.268;2024-03-07T08:57:00;41.78;;;28.92;;
15271;SDS011;7737;51.578;7.268;2024-03-07T08:59:26;40.85;;;28.33;;
15271;SDS011;7737;51.578;7.268;2024-03-07T09:01:52;36.92;;;27.48;;
15271;SDS011;7737;51.578;7.268;2024-03-07T09:04:19;34.33;;;25.97;;
15271;SDS011;7737;51.578;7.268;2024-03-07T09:06:47;36.00;;;26.70;;
15271;SDS011;7737;51.578;7.268;2024-03-07T09:09:14;28.73;;;24.45;;
15271;SDS011;7737;51.578;7.268;2024-03-07T09:11:43;36.28;;;25.63;;
15271;SDS011;7737;51.578;7.268;2024-03-07T09:14:11;34.10;;;24.75;;
15271;SDS011;7737;51.578;7.268;2024-03-07T09:16:37;32.38;;;24.73;;
15271;SDS011;7737;51.578;7.268;2024-03-07T09:19:04;31.48;;;26.17;;
15271;SDS011;7737;51.578;7.268;2024-03-07T09:21:31;30.98;;;25.08;;
15271;SDS011;7737;51.578;7.268;2024-03-07T09:23:58;32.95;;;26.05;;
15271;SDS011;7737;51.578;7.268;2024-03-07T09:26:25;28.70;;;25.15;;
15271;SDS011;7737;51.578;7.268;2024-03-07T09:28:51;32.38;;;25.80;;
15271;SDS011;7737;51.578;7.268;2024-03-07T09:31:21;29.67;;;24.02;;
15271;SDS011;7737;51.578;7.268;2024-03-07T09:33:48;28.58;;;24.38;;
15271;SDS011;7737;51.578;7.268;2024-03-07T09:36:15;44.75;;;24.58;;
15271;SDS011;7737;51.578;7.268;2024-03-07T09:38:42;29.98;;;22.73;;
15271;SDS011;7737;51.578;7.268;2024-03-07T09:41:09;30.30;;;22.90;;
15271;SDS011;7737;51.578;7.268;2024-03-07T09:43:36;31.40;;;23.52;;
15271;SDS011;7737;51.578;7.268;2024-03-07T09:46:04;26.77;;;21.73;;
15271;SDS011;7737;51.578;7.268;2024-03-07T09:48:33;27.35;;;22.60;;
15271;SDS011;7737;51.578;7.268;2024-03-07T09:51:00;30.00;;;22.30;;
15271;SDS011;7737;51.578;7.268;2024-03-07T09:53:31;27.83;;;22.35;;
15271;SDS011;7737;51.578;7.268;2024-03-07T09:55:58;24.52;;;21.35;;
15271;SDS011;7737;51.578;7.268;2024-03-07T09:58:24;26.60;;;20.33;;
15271;SDS011;7737;51.578;7.268;2024-03-07T10:00:54;25.15;;;20.90;;
15271;SDS011;7737;51.578;7.268;2024-03-07T10:03:22;24.85;;;20.73;;
15271;SDS011;7737;51.578;7.268;2024-03-07T10:05:56;23.08;;;19.90;;
15271;SDS011;7737;51.578;7.268;2024-03-07T10:08:22;24.15;;;21.55;;
15271;SDS011;7737;51.578;7.268;2024-03-07T10:10:50;24.42;;;20.23;;
15271;SDS011;7737;51.578;7.268;2024-03-07T10:13:18;26.88;;;20.73;;
15271;SDS011;7737;51.578;7.268;2024-03-07T10:15:44;25.55;;;21.40;;
15271;SDS011;7737;51.578;7.268;2024-03-07T10:18:12;24.92;;;20.75;;
15271;SDS011;7737;51.578;7.268;2024-03-07T10:20:39;26.45;;;21.60;;
15271;SDS011;7737;51.578;7.268;2024-03-07T10:23:09;25.73;;;22.02;;
15271;SDS011;7737;51.578;7.268;2024-03-07T10:25:35;26.42;;;21.10;;
15271;SDS011;7737;51.578;7.268;2024-03-07T10:28:04;24.67;;;21.95;;
15271;SDS011;7737;51.578;7.268;2024-03-07T10:30:39;28.45;;;22.17;;
15271;SDS011;7737;51.578;7.268;2024-03-07T10:33:06;26.02;;;22.67;;
15271;SDS011;7737;51.578;7.268;2024-03-07T10:35:32;25.08;;;21.23;;
15271;SDS011;7737;51.578;7.268;2024-03-07T10:37:59;27.83;;;21.88;;
15271;SDS011;7737;51.578;7.268;2024-03-07T10:40:32;25.60;;;21.40;;
15271;SDS011;7737;51.578;7.268;2024-03-07T10:43:00;26.35;;;22.63;;
15271;SDS011;7737;51.578;7.268;2024-03-07T10:45:28;26.65;;;23.25;;
15271;SDS011;7737;51.578;7.268;2024-03-07T10:47:55;24.50;;;21.30;;
15271;SDS011;7737;51.578;7.268;2024-03-07T10:50:26;25.90;;;22.38;;
15271;SDS011;7737;51.578;7.268;2024-03-07T10:53:07;28.90;;;22.10;;
15271;SDS011;7737;51.578;7.268;2024-03-07T10:55:44;24.20;;;21.40;;
15271;SDS011;7737;51.578;7.268;2024-03-07T10:58:27;26.15;;;21.70;;
15271;SDS011;7737;51.578;7.268;2024-03-07T11:01:01;25.27;;;21.50;;
15271;SDS011;7737;51.578;7.268;2024-03-07T11:03:30;25.88;;;20.42;;
15271;SDS011;7737;51.578;7.268;2024-03-07T11:05:57;28.83;;;22.65;;
15271;SDS011;7737;51.578;7.268;2024-03-07T11:08:25;22.15;;;19.70;;
15271;SDS011;7737;51.578;7.268;2024-03-07T11:10:53;24.02;;;20.23;;
15271;SDS011;7737;51.578;7.268;2024-03-07T11:13:20;25.10;;;20.55;;
15271;SDS011;7737;51.578;7.268;2024-03-07T11:15:47;23.98;;;20.85;;
15271;SDS011;7737;51.578;7.268;2024-03-07T11:18:16;23.90;;;20.17;;
15271;SDS011;7737;51.578;7.268;2024-03-07T11:20:43;22.02;;;19.67;;
15271;SDS011;7737;51.578;7.268;2024-03-07T11:23:27;24.02;;;20.33;;
15271;SDS011;7737;51.578;7.268;2024-03-07T11:25:56;21.77;;;19.48;;
15271;SDS011;7737;51.578;7.268;2024-03-07T11:28:32;23.42;;;18.50;;
15271;SDS011;7737;51.578;7.268;2024-03-07T11:31:14;21.80;;;18.88;;
15271;SDS011;7737;51.578;7.268;2024-03-07T11:36:42;20.25;;;18.13;;
15271;SDS011;7737;51.578;7.268;2024-03-07T11:42:06;18.92;;;16.92;;
15271;SDS011;7737;51.578;7.268;2024-03-07T11:44:33;22.13;;;16.85;;
15271;SDS011;7737;51.578;7.268;2024-03-07T11:47:00;20.90;;;17.67;;
15271;SDS011;7737;51.578;7.268;2024-03-07T11:49:33;20.08;;;17.25;;
15271;SDS011;7737;51.578;7.268;2024-03-07T11:52:01;20.00;;;15.93;;
15271;SDS011;7737;51.578;7.268;2024-03-07T11:54:29;18.20;;;16.30;;
15271;SDS011;7737;51.578;7.268;2024-03-07T11:56:57;18.98;;;16.40;;
15271;SDS011;7737;51.578;7.268;2024-03-07T11:59:25;18.92;;;16.58;;
15271;SDS011;7737;51.578;7.268;2024-03-07T12:01:57;20.65;;;18.45;;
15271;SDS011;7737;51.578;7.268;2024-03-07T12:04:26;20.85;;;18.50;;
15271;SDS011;7737;51.578;7.268;2024-03-07T12:06:52;19.70;;;17.60;;
15271;SDS011;7737;51.578;7.268;2024-03-07T12:09:19;24.05;;;20.02;;
15271;SDS011;7737;51.578;7.268;2024-03-07T12:11:49;19.85;;;17.73;;
15271;SDS011;7737;51.578;7.268;2024-03-07T12:14:18;19.92;;;17.33;;
15271;SDS011;7737;51.578;7.268;2024-03-07T12:16:46;18.52;;;16.63;;
15271;SDS011;7737;51.578;7.268;2024-03-07T12:19:13;20.98;;;17.10;;
15271;SDS011;7737;51.578;7.268;2024-03-07T12:21:42;17.98;;;16.10;;
15271;SDS011;7737;51.578;7.268;2024-03-07T12:24:12;17.75;;;15.95;;
15271;SDS011;7737;51.578;7.268;2024-03-07T12:26:40;18.40;;;15.88;;
15271;SDS011;7737;51.578;7.268;2024-03-07T12:29:07;17.98;;;14.95;;
15271;SDS011;7737;51.578;7.268;2024-03-07T12:31:36;19.85;;;15.63;;
15271;SDS011;7737;51.578;7.268;2024-03-07T12:34:04;16.00;;;14.30;;
15271;SDS011;7737;51.578;7.268;2024-03-07T12:36:34;17.00;;;14.48;;
15271;SDS011;7737;51.578;7.268;2024-03-07T12:39:10;14.90;;;13.40;;
15271;SDS011;7737;51.578;7.268;2024-03-07T12:41:51;16.08;;;14.38;;
15271;SDS011;7737;51.578;7.268;2024-03-07T12:44:18;15.25;;;13.65;;
15271;SDS011;7737;51.578;7.268;2024-03-07T12:46:45;15.77;;;14.15;;
15271;SDS011;7737;51.578;7.268;2024-03-07T12:49:14;16.10;;;14.45;;
15271;SDS011;7737;51.578;7.268;2024-03-07T12:51:41;16.08;;;14.38;;
15271;SDS011;7737;51.578;7.268;2024-03-07T12:54:08;14.10;;;12.70;;
15271;SDS011;7737;51.578;7.268;2024-03-07T12:56:38;14.90;;;13.40;;
15271;SDS011;7737;51.578;7.268;2024-03-07T12:59:04;13.65;;;12.25;;
15271;SDS011;7737;51.578;7.268;2024-03-07T13:01:35;15.57;;;12.98;;
15271;SDS011;7737;51.578;7.268;2024-03-07T13:04:04;13.95;;;12.48;;
15271;SDS011;7737;51.578;7.268;2024-03-07T13:06:34;14.20;;;12.75;;
15271;SDS011;7737;51.578;7.268;2024-03-07T13:09:00;14.05;;;12.55;;
15271;SDS011;7737;51.578;7.268;2024-03-07T13:11:27;13.55;;;12.25;;
15271;SDS011;7737;51.578;7.268;2024-03-07T13:13:57;13.30;;;11.98;;
15271;SDS011;7737;51.578;7.268;2024-03-07T13:16:23;13.52;;;11.82;;
15271;SDS011;7737;51.578;7.268;2024-03-07T13:18:52;13.57;;;12.18;;
15271;SDS011;7737;51.578;7.268;2024-03-07T13:21:19;18.63;;;12.00;;
15271;SDS011;7737;51.578;7.268;2024-03-07T13:23:46;12.82;;;11.52;;
15271;SDS011;7737;51.578;7.268;2024-03-07T13:26:14;13.20;;;11.85;;
15271;SDS011;7737;51.578;7.268;2024-03-07T13:28:48;12.68;;;11.38;;
15271;SDS011;7737;51.578;7.268;2024-03-07T13:31:15;13.43;;;11.07;;
15271;SDS011;7737;51.578;7.268;2024-03-07T13:33:42;12.85;;;11.43;;
15271;SDS011;7737;51.578;7.268;2024-03-07T13:36:09;13.13;;;10.90;;
15271;SDS011;7737;51.578;7.268;2024-03-07T13:38:36;15.85;;;11.65;;
15271;SDS011;7737;51.578;7.268;2024-03-07T13:41:04;12.65;;;11.07;;
15271;SDS011;7737;51.578;7.268;2024-03-07T13:43:31;13.02;;;11.23;;
15271;SDS011;7737;51.578;7.268;2024-03-07T13:45:58;11.57;;;10.38;;
15271;SDS011;7737;51.578;7.268;2024-03-07T13:48:25;12.27;;;10.43;;
15271;SDS011;7737;51.578;7.268;2024-03-07T13:50:51;21.95;;;11.57;;
15271;SDS011;7737;51.578;7.268;2024-03-07T13:53:19;11.32;;;9.98;;
15271;SDS011;7737;51.578;7.268;2024-03-07T13:55:56;11.43;;;10.07;;
15271;SDS011;7737;51.578;7.268;2024-03-07T13:58:47;13.02;;;9.63;;
15271;SDS011;7737;51.578;7.268;2024-03-07T14:01:30;11.60;;;10.20;;
15271;SDS011;7737;51.578;7.268;2024-03-07T14:04:26;12.32;;;10.10;;
15271;SDS011;7737;51.578;7.268;2024-03-07T14:07:15;14.30;;;10.13;;
15271;SDS011;7737;51.578;7.268;2024-03-07T14:13:16;11.65;;;9.55;;
15271;SDS011;7737;51.578;7.268;2024-03-07T14:15:57;17.35;;;9.95;;
15271;SDS011;7737;51.578;7.268;2024-03-07T14:28:15;11.25;;;9.30;;
15271;SDS011;7737;51.578;7.268;2024-03-07T14:31:00;11.52;;;9.55;;
15271;SDS011;7737;51.578;7.268;2024-03-07T14:33:35;11.27;;;9.55;;
15271;SDS011;7737;51.578;7.268;2024-03-07T14:36:16;11.70;;;10.02;;
15271;SDS011;7737;51.578;7.268;2024-03-07T14:38:43;13.90;;;10.43;;
15271;SDS011;7737;51.578;7.268;2024-03-07T14:41:15;13.65;;;10.95;;
15271;SDS011;7737;51.578;7.268;2024-03-07T14:43:44;13.30;;;10.70;;
15271;SDS011;7737;51.578;7.268;2024-03-07T14:46:11;16.58;;;11.43;;
15271;SDS011;7737;51.578;7.268;2024-03-07T14:48:39;13.93;;;11.90;;
15271;SDS011;7737;51.578;7.268;2024-03-07T14:51:07;13.85;;;12.18;;
15271;SDS011;7737;51.578;7.268;2024-03-07T14:53:34;15.75;;;12.45;;
15271;SDS011;7737;51.578;7.268;2024-03-07T14:56:01;14.13;;;11.80;;
15271;SDS011;7737;51.578;7.268;2024-03-07T14:58:30;15.25;;;12.93;;
15271;SDS011;7737;51.578;7.268;2024-03-07T15:00:57;15.30;;;12.55;;
15271;SDS011;7737;51.578;7.268;2024-03-07T15:03:24;14.98;;;13.02;;